Time;durP1;ratioP1;P1;durP2;ratioP2;P2;SDS_P1;SDS_P2;PMS_P1;PMS_P2;Temp;Humidity;BMP_temperature;BMP_pressure;BME280_temperature;BME280_humidity;BME280_pressure;Samples;Min_cycle;Max_cycle;Signal;HPM_P1;HPM_P2
2021/06/22 00:00:30;;;;;;;9.88;7.22;;;691.80;1561.60;;;;;;5093819;28;20085;-61
2021/06/22 00:02:56;;;;;;;7.75;6.95;;;691.80;1561.60;;;;;;5093801;28;20407;-61
2021/06/22 00:05:23;;;;;;;9.20;6.53;;;691.70;1561.60;;;;;;5093533;28;20469;-62
2021/06/22 00:07:51;;;;;;;10.80;6.53;;;691.70;1561.60;;;;;;5093754;28;20028;-62
2021/06/22 00:10:19;;;;;;;10.35;6.78;;;691.70;1561.60;;;;;;5093615;28;20023;-62
2021/06/22 00:12:45;;;;;;;8.27;7.13;;;691.70;1561.60;;;;;;5093710;28;20066;-62
2021/06/22 00:15:14;;;;;;;10.55;7.03;;;691.60;1587.20;;;;;;5093597;28;20030;-62
2021/06/22 00:17:42;;;;;;;9.70;6.78;;;691.60;1587.20;;;;;;5094161;28;20027;-62
2021/06/22 00:20:10;;;;;;;7.80;7.00;;;691.50;1587.20;;;;;;5093601;28;20031;-62
2021/06/22 00:22:37;;;;;;;12.20;7.05;;;691.50;1587.20;;;;;;5093108;28;20093;-62
2021/06/22 00:25:04;;;;;;;10.45;7.53;;;691.50;1587.20;;;;;;5093636;28;20123;-61
2021/06/22 00:27:30;;;;;;;10.93;7.30;;;691.40;1587.20;;;;;;5093465;28;20016;-62
2021/06/22 00:29:56;;;;;;;10.10;6.75;;;691.40;1587.20;;;;;;5093497;28;20032;-61
2021/06/22 00:32:21;;;;;;;11.48;6.57;;;691.40;1612.80;;;;;;5093596;28;20035;-62
2021/06/22 00:34:47;;;;;;;10.98;7.03;;;691.30;1612.80;;;;;;5093366;28;20032;-62
2021/06/22 00:37:15;;;;;;;8.60;7.05;;;691.30;1612.80;;;;;;5093288;28;20028;-62
2021/06/22 00:39:42;;;;;;;12.05;6.75;;;691.30;1638.40;;;;;;5093422;28;20469;-62
2021/06/22 00:42:09;;;;;;;10.93;6.70;;;691.30;1638.40;;;;;;5093249;28;20024;-61
2021/06/22 00:44:51;;;;;;;8.75;7.10;;;691.30;1612.80;;;;;;5093218;28;20036;-61
2021/06/22 00:47:17;;;;;;;18.80;7.65;;;691.30;1638.40;;;;;;5093260;28;20496;-62
2021/06/22 00:49:44;;;;;;;9.88;7.25;;;691.20;1638.40;;;;;;5093383;28;20024;-62
2021/06/22 00:52:10;;;;;;;10.30;7.63;;;691.20;1638.40;;;;;;5093364;28;20116;-61
2021/06/22 00:54:36;;;;;;;9.88;7.30;;;691.20;1638.40;;;;;;5093237;28;20104;-61
2021/06/22 00:57:11;;;;;;;9.10;6.63;;;666.50;1638.40;;;;;;5093341;28;20418;-62
2021/06/22 00:59:37;;;;;;;9.55;6.65;;;666.40;1638.40;;;;;;5094766;28;20069;-61
2021/06/22 01:02:04;;;;;;;9.93;6.93;;;666.30;1664.00;;;;;;5096814;28;20047;-62
2021/06/22 01:04:30;;;;;;;8.63;6.50;;;666.40;1664.00;;;;;;5096412;28;20545;-61
2021/06/22 01:06:56;;;;;;;9.75;6.90;;;666.30;1664.00;;;;;;5096768;28;20030;-62
2021/06/22 01:09:23;;;;;;;9.98;6.72;;;666.40;1664.00;;;;;;5096641;28;20026;-61
2021/06/22 01:11:49;;;;;;;9.50;7.22;;;666.40;1664.00;;;;;;5096743;28;20027;-61
2021/06/22 01:14:14;;;;;;;9.48;7.45;;;666.40;1664.00;;;;;;5096664;28;20024;-62
2021/06/22 01:16:40;;;;;;;11.00;8.18;;;666.40;1689.60;;;;;;5095457;28;20109;-61
2021/06/22 01:19:08;;;;;;;9.90;7.75;;;666.30;1689.60;;;;;;5096657;28;20526;-61
2021/06/22 01:21:35;;;;;;;8.98;7.28;;;666.30;1689.60;;;;;;5096098;28;20044;-61
2021/06/22 01:24:09;;;;;;;17.48;8.13;;;666.30;1715.20;;;;;;5096159;28;20036;-61
2021/06/22 01:26:38;;;;;;;9.52;8.07;;;666.20;1715.20;;;;;;5096341;28;20370;-62
2021/06/22 01:29:05;;;;;;;13.95;8.15;;;666.20;1715.20;;;;;;5096355;28;20027;-61
2021/06/22 01:31:31;;;;;;;11.52;8.00;;;666.20;1715.20;;;;;;5096311;28;20114;-62
2021/06/22 01:33:57;;;;;;;8.90;8.00;;;666.10;1715.20;;;;;;5095958;28;20035;-63
2021/06/22 01:36:23;;;;;;;15.60;7.72;;;666.10;1740.80;;;;;;5096342;28;20028;-61
2021/06/22 01:38:49;;;;;;;12.93;8.05;;;666.10;1740.80;;;;;;5096327;28;20093;-61
2021/06/22 01:41:15;;;;;;;14.80;7.72;;;666.10;1766.40;;;;;;5094839;28;20397;-61
2021/06/22 01:43:41;;;;;;;9.48;7.90;;;666.00;1766.40;;;;;;5095996;28;20031;-61
2021/06/22 01:46:07;;;;;;;12.23;7.90;;;666.00;1766.40;;;;;;5095992;28;20024;-62
2021/06/22 01:48:33;;;;;;;9.15;7.30;;;666.00;1766.40;;;;;;5095954;28;20073;-62
2021/06/22 01:50:58;;;;;;;10.80;7.00;;;666.00;1766.40;;;;;;5095826;28;20373;-62
2021/06/22 01:53:25;;;;;;;9.63;8.40;;;666.00;1766.40;;;;;;5095620;28;20028;-61
2021/06/22 01:55:52;;;;;;;11.30;7.18;;;666.00;1766.40;;;;;;5095797;28;20507;-61
2021/06/22 01:58:19;;;;;;;10.57;7.55;;;666.00;1766.40;;;;;;5095756;28;20024;-61
2021/06/22 02:00:50;;;;;;;13.15;7.45;;;665.90;1792.00;;;;;;5095974;28;20370;-61
2021/06/22 02:03:18;;;;;;;10.70;7.93;;;665.80;1792.00;;;;;;5095341;28;20463;-62
2021/06/22 02:05:45;;;;;;;13.05;7.35;;;665.80;1766.40;;;;;;5095647;28;20058;-61
2021/06/22 02:08:11;;;;;;;9.85;8.10;;;665.70;1792.00;;;;;;5095279;28;20486;-61
2021/06/22 02:10:37;;;;;;;8.20;7.40;;;665.70;1792.00;;;;;;5094836;28;20103;-61
2021/06/22 02:13:03;;;;;;;8.82;7.68;;;665.70;1792.00;;;;;;5095477;28;20153;-61
2021/06/22 02:15:29;;;;;;;11.15;7.65;;;665.70;1792.00;;;;;;5095652;28;20066;-61
2021/06/22 02:17:55;;;;;;;8.52;7.63;;;665.70;1792.00;;;;;;5095144;28;20031;-62
2021/06/22 02:20:21;;;;;;;8.82;7.60;;;665.60;1792.00;;;;;;5095381;28;20377;-62
2021/06/22 02:22:47;;;;;;;9.38;7.15;;;665.70;1792.00;;;;;;5094902;28;20054;-61
2021/06/22 02:25:14;;;;;;;11.73;7.82;;;665.70;1792.00;;;;;;5095047;28;20032;-61
2021/06/22 02:27:40;;;;;;;9.20;7.28;;;665.70;1792.00;;;;;;5095201;28;20035;-62
2021/06/22 02:30:12;;;;;;;13.65;7.45;;;665.60;1792.00;;;;;;5095408;28;20111;-62
2021/06/22 02:32:39;;;;;;;10.43;7.13;;;665.60;1792.00;;;;;;5095218;28;20024;-61
2021/06/22 02:35:07;;;;;;;10.90;7.70;;;665.60;1817.60;;;;;;5095133;28;20031;-61
2021/06/22 02:37:33;;;;;;;9.80;6.97;;;665.60;1817.60;;;;;;5095115;28;20028;-61
2021/06/22 02:39:59;;;;;;;9.88;7.40;;;665.60;1792.00;;;;;;5094906;28;20029;-61
2021/06/22 02:42:25;;;;;;;8.98;7.38;;;665.60;1792.00;;;;;;5094990;28;20024;-62
2021/06/22 02:44:50;;;;;;;15.45;7.32;;;640.90;1792.00;;;;;;5094661;28;20115;-62
2021/06/22 02:47:16;;;;;;;9.82;6.97;;;640.90;1792.00;;;;;;5095142;28;20051;-62
2021/06/22 02:49:42;;;;;;;9.07;7.15;;;640.90;1792.00;;;;;;5094132;28;20062;-62
2021/06/22 02:52:08;;;;;;;9.70;7.57;;;640.80;1792.00;;;;;;5094598;28;20043;-61
2021/06/22 02:54:37;;;;;;;9.80;7.07;;;640.80;1792.00;;;;;;5093941;28;20043;-62
2021/06/22 02:57:08;;;;;;;15.05;7.88;;;640.80;1817.60;;;;;;5093698;28;20544;-61
2021/06/22 02:59:35;;;;;;;10.82;7.88;;;640.70;1817.60;;;;;;5094160;28;20043;-61
2021/06/22 03:02:02;;;;;;;14.82;7.57;;;640.80;1817.60;;;;;;5094108;28;20080;-62
2021/06/22 03:04:28;;;;;;;9.75;7.28;;;640.80;1817.60;;;;;;5093959;28;20073;-62
2021/06/22 03:06:54;;;;;;;11.25;7.78;;;640.70;1817.60;;;;;;5094395;28;20028;-62
2021/06/22 03:09:20;;;;;;;10.15;7.50;;;640.70;1817.60;;;;;;5094073;28;20032;-65
2021/06/22 03:11:46;;;;;;;12.70;8.10;;;640.70;1817.60;;;;;;5093789;28;20103;-61
2021/06/22 03:14:12;;;;;;;16.92;8.10;;;640.80;1817.60;;;;;;5093985;28;20024;-61
2021/06/22 03:16:38;;;;;;;9.50;7.30;;;640.80;1817.60;;;;;;5094299;28;20028;-61
2021/06/22 03:19:03;;;;;;;14.85;7.47;;;640.70;1792.00;;;;;;5094114;28;20059;-61
2021/06/22 03:21:29;;;;;;;8.55;7.32;;;640.70;1817.60;;;;;;5093357;28;20052;-63
2021/06/22 03:23:55;;;;;;;9.23;6.93;;;640.70;1817.60;;;;;;5093972;28;20070;-61
2021/06/22 03:26:21;;;;;;;13.07;7.65;;;640.70;1817.60;;;;;;5094459;28;20028;-62
2021/06/22 03:28:46;;;;;;;10.73;8.23;;;640.70;1817.60;;;;;;5094129;28;20032;-61
2021/06/22 03:31:12;;;;;;;11.95;8.35;;;640.70;1843.20;;;;;;5093876;28;20038;-61
2021/06/22 03:33:38;;;;;;;11.50;7.88;;;640.60;1843.20;;;;;;5094069;28;20024;-62
2021/06/22 03:36:04;;;;;;;8.45;7.55;;;640.60;1843.20;;;;;;5094086;28;20383;-61
2021/06/22 03:38:30;;;;;;;14.93;8.05;;;640.50;1843.20;;;;;;5093741;28;20535;-61
2021/06/22 03:40:56;;;;;;;11.23;7.78;;;640.50;1843.20;;;;;;5094215;28;20027;-61
2021/06/22 03:43:22;;;;;;;13.32;7.28;;;640.50;1843.20;;;;;;5093716;28;20028;-62
2021/06/22 03:45:48;;;;;;;10.32;7.30;;;640.50;1843.20;;;;;;5093880;28;20031;-61
2021/06/22 03:48:14;;;;;;;11.13;6.88;;;640.60;1843.20;;;;;;5093748;28;20407;-61
2021/06/22 03:50:40;;;;;;;8.48;7.47;;;640.60;1843.20;;;;;;5093815;28;20035;-61
2021/06/22 03:53:07;;;;;;;9.80;7.13;;;640.60;1843.20;;;;;;5093967;28;20091;-61
2021/06/22 03:55:33;;;;;;;11.73;7.57;;;640.60;1843.20;;;;;;5093954;28;20406;-61
2021/06/22 03:58:01;;;;;;;10.32;7.88;;;640.60;1843.20;;;;;;5093614;28;20491;-61
2021/06/22 04:00:28;;;;;;;15.20;7.90;;;640.60;1843.20;;;;;;5093772;28;20028;-62
2021/06/22 04:02:59;;;;;;;11.82;8.30;;;640.60;1843.20;;;;;;5093880;28;20032;-62
2021/06/22 04:05:28;;;;;;;12.55;9.07;;;640.60;1868.80;;;;;;5093485;28;20036;-61
2021/06/22 04:07:55;;;;;;;10.43;7.95;;;640.60;1843.20;;;;;;5093416;28;20031;-62
2021/06/22 04:10:21;;;;;;;10.77;8.32;;;640.60;1843.20;;;;;;5093681;28;20021;-61
2021/06/22 04:12:46;;;;;;;11.70;8.43;;;640.70;1843.20;;;;;;5093727;28;20031;-62
2021/06/22 04:15:13;;;;;;;11.93;8.68;;;640.70;1843.20;;;;;;5093669;28;20020;-62
2021/06/22 04:17:38;;;;;;;9.60;8.20;;;640.70;1843.20;;;;;;5093431;28;20032;-61
2021/06/22 04:20:06;;;;;;;9.93;7.72;;;640.70;1843.20;;;;;;5093703;28;20031;-61
2021/06/22 04:22:32;;;;;;;11.57;8.63;;;640.80;1843.20;;;;;;5093418;28;20047;-61
2021/06/22 04:24:58;;;;;;;9.95;8.23;;;640.80;1843.20;;;;;;5093470;28;20081;-62
2021/06/22 04:27:24;;;;;;;13.13;8.30;;;640.90;1817.60;;;;;;5093564;28;20032;-61
2021/06/22 04:29:49;;;;;;;11.57;8.15;;;640.90;1817.60;;;;;;5093542;28;20089;-61
2021/06/22 04:32:16;;;;;;;8.73;7.88;;;665.60;1843.20;;;;;;5093239;28;20461;-61
2021/06/22 04:34:42;;;;;;;8.98;7.85;;;665.70;1843.20;;;;;;5096642;28;20027;-61
2021/06/22 04:37:08;;;;;;;18.67;8.30;;;665.70;1843.20;;;;;;5097271;28;20113;-61
2021/06/22 04:39:33;;;;;;;12.85;7.90;;;665.80;1843.20;;;;;;5097213;28;20059;-61
2021/06/22 04:41:59;;;;;;;11.70;8.38;;;665.80;1843.20;;;;;;5097195;28;20465;-62
2021/06/22 04:44:25;;;;;;;10.07;7.88;;;665.80;1843.20;;;;;;5096671;28;20040;-62
2021/06/22 04:46:51;;;;;;;11.10;8.68;;;666.00;1843.20;;;;;;5097547;28;20031;-61
2021/06/22 04:49:17;;;;;;;11.68;8.05;;;666.00;1817.60;;;;;;5096907;28;20394;-62
2021/06/22 04:51:42;;;;;;;12.05;8.30;;;666.10;1817.60;;;;;;5096948;28;20385;-61
2021/06/22 04:54:10;;;;;;;14.13;8.38;;;666.20;1817.60;;;;;;5096786;28;20027;-62
2021/06/22 04:56:37;;;;;;;11.48;9.43;;;666.30;1792.00;;;;;;5096948;28;20024;-61
2021/06/22 04:59:03;;;;;;;12.45;9.10;;;666.40;1792.00;;;;;;5097446;28;20025;-61
2021/06/22 05:01:29;;;;;;;11.65;9.25;;;666.50;1792.00;;;;;;5096888;28;20420;-62
2021/06/22 05:03:55;;;;;;;11.43;9.70;;;666.50;1792.00;;;;;;5097022;28;20032;-62
2021/06/22 05:06:21;;;;;;;13.77;10.13;;;691.20;1766.40;;;;;;5096524;28;20024;-61
2021/06/22 05:08:47;;;;;;;16.23;9.73;;;691.40;1766.40;;;;;;5096597;28;20020;-62
2021/06/22 05:11:13;;;;;;;16.50;10.82;;;691.40;1766.40;;;;;;5096719;28;20028;-62
2021/06/22 05:13:41;;;;;;;15.27;10.43;;;691.50;1766.40;;;;;;5096646;28;20021;-61
2021/06/22 05:16:06;;;;;;;17.83;10.77;;;691.50;1740.80;;;;;;5096697;28;20028;-61
2021/06/22 05:18:32;;;;;;;18.73;10.48;;;691.70;1740.80;;;;;;5096368;28;20462;-61
2021/06/22 05:20:58;;;;;;;16.25;11.15;;;691.80;1740.80;;;;;;5096196;28;20024;-62
2021/06/22 05:23:24;;;;;;;15.50;10.85;;;691.90;1740.80;;;;;;5096382;28;20035;-62
2021/06/22 05:25:49;;;;;;;18.80;11.48;;;691.90;1715.20;;;;;;5096489;28;20024;-61
2021/06/22 05:28:15;;;;;;;23.20;11.95;;;692.00;1715.20;;;;;;5096470;28;20024;-61
2021/06/22 05:30:41;;;;;;;15.60;10.52;;;716.80;1740.80;;;;;;5096331;28;20473;-61
2021/06/22 05:33:07;;;;;;;20.15;10.98;;;716.90;1715.20;;;;;;5095684;28;20473;-61
2021/06/22 05:35:34;;;;;;;20.85;11.27;;;717.00;1715.20;;;;;;5096180;28;20027;-62
2021/06/22 05:38:00;;;;;;;16.02;10.82;;;717.10;1715.20;;;;;;5096125;28;20032;-61
2021/06/22 05:40:26;;;;;;;15.63;10.18;;;717.20;1689.60;;;;;;5095930;28;20355;-61
2021/06/22 05:42:53;;;;;;;18.38;10.00;;;717.30;1689.60;;;;;;5095801;28;20020;-62
2021/06/22 05:45:19;;;;;;;11.27;9.30;;;717.50;1689.60;;;;;;5093164;28;20036;-62
2021/06/22 05:47:45;;;;;;;15.50;10.25;;;717.60;1664.00;;;;;;5096038;28;20032;-61
2021/06/22 05:50:12;;;;;;;22.90;10.38;;;717.60;1638.40;;;;;;5096022;28;20032;-61
2021/06/22 05:52:38;;;;;;;18.17;10.48;;;742.40;1664.00;;;;;;5095932;28;20031;-61
2021/06/22 05:55:16;;;;;;;14.15;9.90;;;742.60;1664.00;;;;;;5095661;28;20040;-62
2021/06/22 05:57:47;;;;;;;20.42;9.98;;;742.60;1638.40;;;;;;5095705;28;20028;-62
2021/06/22 06:00:14;;;;;;;25.60;10.02;;;742.70;1638.40;;;;;;5095704;28;20044;-61
2021/06/22 06:02:39;;;;;;;17.25;9.88;;;742.90;1612.80;;;;;;5096028;28;20086;-61
2021/06/22 06:05:06;;;;;;;19.20;9.82;;;743.00;1612.80;;;;;;5095728;28;20460;-62
2021/06/22 06:07:31;;;;;;;18.80;9.20;;;743.10;1587.20;;;;;;5095690;28;20083;-62
2021/06/22 06:09:57;;;;;;;15.30;9.43;;;743.20;1587.20;;;;;;5095506;28;20032;-62
2021/06/22 06:12:23;;;;;;;24.02;9.52;;;743.30;1587.20;;;;;;5095294;28;20107;-62
2021/06/22 06:14:48;;;;;;;17.27;9.70;;;768.00;1587.20;;;;;;5095424;28;20024;-62
2021/06/22 06:17:15;;;;;;;17.65;8.90;;;768.20;1587.20;;;;;;5095337;28;20032;-62
2021/06/22 06:19:41;;;;;;;21.50;9.73;;;768.30;1561.60;;;;;;5095459;28;20043;-61
2021/06/22 06:22:06;;;;;;;20.17;9.55;;;768.40;1561.60;;;;;;5095131;28;20048;-62
2021/06/22 06:24:32;;;;;;;15.90;8.88;;;768.50;1561.60;;;;;;5095171;28;20036;-62
2021/06/22 06:27:08;;;;;;;11.88;8.20;;;768.80;1536.00;;;;;;5095242;28;20136;-61
2021/06/22 06:32:35;;;;;;;21.77;8.82;;;793.70;1510.40;;;;;;5092948;28;20024;-62
2021/06/22 06:35:01;;;;;;;23.02;8.57;;;794.00;1484.80;;;;;;5093029;28;20382;-62
2021/06/22 06:37:26;;;;;;;20.90;8.40;;;794.10;1484.80;;;;;;5092986;28;20107;-62
2021/06/22 06:39:52;;;;;;;20.77;8.00;;;794.20;1459.20;;;;;;5092945;28;20047;-62
2021/06/22 06:42:18;;;;;;;21.55;8.50;;;794.30;1459.20;;;;;;5092923;28;20489;-62
2021/06/22 06:44:43;;;;;;;21.40;9.32;;;794.50;1433.60;;;;;;5092515;28;20040;-62
2021/06/22 06:47:09;;;;;;;27.27;9.35;;;819.30;1408.00;;;;;;5092660;28;20035;-62
2021/06/22 06:49:37;;;;;;;18.77;8.55;;;819.50;1408.00;;;;;;5092782;28;20031;-62
2021/06/22 06:52:04;;;;;;;24.70;9.32;;;819.70;1382.40;;;;;;5092582;28;20470;-62
2021/06/22 06:54:30;;;;;;;20.08;8.55;;;819.80;1382.40;;;;;;5091885;28;20044;-62
2021/06/22 06:56:56;;;;;;;18.80;8.27;;;819.90;1382.40;;;;;;5092660;28;20031;-62
2021/06/22 06:59:22;;;;;;;20.33;8.75;;;820.00;1382.40;;;;;;5092332;28;20032;-62
2021/06/22 07:01:48;;;;;;;17.80;7.30;;;844.80;1382.40;;;;;;5092366;28;20035;-62
2021/06/22 07:04:14;;;;;;;19.90;7.78;;;845.00;1382.40;;;;;;5092305;28;20035;-62
2021/06/22 07:06:40;;;;;;;19.60;7.25;;;845.30;1356.80;;;;;;5093445;28;20105;-62
2021/06/22 07:09:06;;;;;;;30.20;8.05;;;845.30;1331.20;;;;;;5094376;28;20457;-62
2021/06/22 07:11:32;;;;;;;23.38;7.28;;;845.50;1305.60;;;;;;5094379;28;20031;-62
2021/06/22 07:13:58;;;;;;;17.33;7.90;;;845.60;1280.00;;;;;;5094288;28;20466;-62
2021/06/22 07:16:24;;;;;;;31.48;7.30;;;870.40;1254.40;;;;;;5094170;28;20266;-62
2021/06/22 07:18:49;;;;;;;27.33;7.32;;;870.50;1228.80;;;;;;5094119;28;20099;-62
2021/06/22 07:21:17;;;;;;;20.90;6.70;;;870.60;1228.80;;;;;;5094119;28;20036;-62
2021/06/22 07:23:43;;;;;;;30.95;13.32;;;870.70;1203.20;;;;;;5094039;28;20385;-62
2021/06/22 07:26:09;;;;;;;42.92;16.42;;;870.90;1177.60;;;;;;5094178;28;20027;-62
2021/06/22 07:28:35;;;;;;;25.60;11.70;;;871.00;1152.00;;;;;;5093980;28;20059;-62
2021/06/22 07:31:06;;;;;;;20.50;9.27;;;871.10;1152.00;;;;;;5094252;28;20024;-62
2021/06/22 07:33:32;;;;;;;25.73;7.93;;;871.20;1126.40;;;;;;5094214;28;20159;-62
2021/06/22 07:35:57;;;;;;;32.38;7.18;;;896.00;1126.40;;;;;;5094133;28;20032;-62
2021/06/22 07:38:23;;;;;;;20.05;6.70;;;896.10;1100.80;;;;;;5093882;28;20423;-62
2021/06/22 07:40:49;;;;;;;30.70;7.53;;;896.30;1100.80;;;;;;5093915;28;20040;-62
2021/06/22 07:43:16;;;;;;;35.95;8.30;;;896.50;1100.80;;;;;;5094411;28;20053;-62
2021/06/22 07:45:42;;;;;;;26.23;7.63;;;896.60;1100.80;;;;;;5093834;28;20064;-62
2021/06/22 07:48:09;;;;;;;18.55;6.78;;;896.80;1075.20;;;;;;5093987;28;20094;-62
2021/06/22 07:50:35;;;;;;;29.05;7.15;;;921.60;1075.20;;;;;;5093910;28;20074;-62
2021/06/22 07:53:02;;;;;;;26.75;7.43;;;921.70;1075.20;;;;;;5093785;28;20031;-62
2021/06/22 07:55:31;;;;;;;24.98;6.95;;;921.90;1075.20;;;;;;5093954;28;20028;-62
2021/06/22 07:57:58;;;;;;;36.38;7.45;;;922.00;1049.60;;;;;;5093596;28;20054;-62
2021/06/22 08:02:54;;;;;;;27.85;7.53;;;922.10;1049.60;;;;;;5093554;28;20027;-62
2021/06/22 08:05:20;;;;;;;23.88;7.13;;;922.30;1024.00;;;;;;5093690;28;20096;-62
2021/06/22 08:07:46;;;;;;;22.48;6.78;;;922.50;998.40;;;;;;5094345;28;20404;-62
2021/06/22 08:10:12;;;;;;;21.50;5.95;;;947.20;998.40;;;;;;5098002;28;20027;-62
2021/06/22 08:12:38;;;;;;;26.63;7.15;;;947.40;998.40;;;;;;5097310;28;20469;-62
2021/06/22 08:15:05;;;;;;;23.90;6.95;;;947.40;998.40;;;;;;5097966;28;20051;-62
2021/06/22 08:17:30;;;;;;;24.55;6.65;;;947.50;998.40;;;;;;5097836;28;20020;-62
2021/06/22 08:19:56;;;;;;;28.58;7.32;;;947.70;998.40;;;;;;5097764;28;20035;-62
2021/06/22 08:22:22;;;;;;;28.75;7.07;;;947.90;972.80;;;;;;5097325;28;20066;-62
2021/06/22 08:24:48;;;;;;;30.02;6.88;;;947.90;921.60;;;;;;5097484;28;20359;-62
2021/06/22 08:27:14;;;;;;;30.90;7.47;;;948.00;921.60;;;;;;5098432;28;20353;-62
2021/06/22 08:29:40;;;;;;;32.35;8.00;;;948.10;896.00;;;;;;5097317;28;20106;-62
2021/06/22 08:32:06;;;;;;;33.00;7.55;;;972.80;921.60;;;;;;5097677;28;20031;-62
2021/06/22 08:34:32;;;;;;;46.90;9.52;;;972.80;896.00;;;;;;5097457;28;20397;-62
2021/06/22 08:36:58;;;;;;;46.25;9.95;;;972.90;896.00;;;;;;5097431;28;20024;-62
2021/06/22 08:39:23;;;;;;;45.15;8.85;;;973.00;896.00;;;;;;5097457;28;20057;-62
2021/06/22 08:41:52;;;;;;;28.70;8.13;;;973.20;870.40;;;;;;5097667;28;20089;-62
2021/06/22 08:44:19;;;;;;;43.00;8.13;;;973.30;844.80;;;;;;5097015;28;20032;-62
2021/06/22 08:46:46;;;;;;;45.17;8.98;;;973.30;844.80;;;;;;5097003;28;20031;-62
2021/06/22 08:49:13;;;;;;;49.50;10.07;;;973.40;844.80;;;;;;5097181;28;20432;-62
2021/06/22 08:51:40;;;;;;;40.22;9.20;;;973.50;844.80;;;;;;5097038;28;20024;-62
2021/06/22 08:54:07;;;;;;;40.67;8.32;;;973.60;819.20;;;;;;5096887;28;20028;-62
2021/06/22 08:56:33;;;;;;;38.17;8.32;;;998.40;844.80;;;;;;5096989;28;20032;-62
2021/06/22 08:58:58;;;;;;;32.35;8.25;;;998.50;844.80;;;;;;5097029;28;20024;-62
2021/06/22 09:01:24;;;;;;;29.58;7.20;;;998.50;819.20;;;;;;5097000;28;20032;-62
2021/06/22 09:03:50;;;;;;;33.47;7.00;;;998.60;819.20;;;;;;5096819;28;20040;-62
2021/06/22 09:06:15;;;;;;;27.73;7.25;;;998.70;819.20;;;;;;5096971;28;20024;-62
2021/06/22 09:08:50;;;;;;;26.77;6.57;;;998.90;819.20;;;;;;5096787;28;20028;-62
2021/06/22 09:11:16;;;;;;;29.13;7.10;;;998.90;819.20;;;;;;5096636;28;20031;-62
2021/06/22 09:13:53;;;;;;;30.40;7.10;;;998.90;793.60;;;;;;5096573;28;20032;-62
2021/06/22 09:16:19;;;;;;;34.60;7.55;;;998.90;819.20;;;;;;5096393;28;20103;-62
2021/06/22 09:18:45;;;;;;;39.47;7.28;;;999.00;819.20;;;;;;5096987;28;20055;-62
2021/06/22 09:21:18;;;;;;;41.45;8.35;;;999.30;793.60;;;;;;5095090;28;20110;-62
2021/06/22 09:23:47;;;;;;;32.60;8.02;;;999.30;793.60;;;;;;5096320;28;20127;-62
2021/06/22 09:26:30;;;;;;;35.88;8.23;;;1024.00;819.20;;;;;;5096522;28;20033;-63
2021/06/22 09:29:12;;;;;;;28.13;8.05;;;1024.10;793.60;;;;;;5096532;28;20036;-62
2021/06/22 09:31:54;;;;;;;37.33;7.80;;;1024.20;768.00;;;;;;5096556;28;20048;-62
2021/06/22 09:34:22;;;;;;;45.13;7.50;;;1024.20;742.40;;;;;;5096313;28;20477;-62
2021/06/22 09:36:56;;;;;;;35.67;7.13;;;1024.30;742.40;;;;;;5096230;28;20260;-62
2021/06/22 09:39:23;;;;;;;26.70;7.22;;;1024.30;742.40;;;;;;5096004;28;20489;-63
2021/06/22 09:41:51;;;;;;;36.72;7.05;;;1024.30;742.40;;;;;;5094850;28;20470;-62
2021/06/22 09:44:21;;;;;;;31.60;7.20;;;1024.30;742.40;;;;;;5096139;28;20115;-62
2021/06/22 09:46:55;;;;;;;38.03;7.60;;;1024.30;742.40;;;;;;5096140;28;20519;-62
2021/06/22 09:49:25;;;;;;;30.02;7.65;;;1024.50;742.40;;;;;;5096122;28;20020;-62
2021/06/22 09:52:00;;;;;;;30.90;7.28;;;1024.50;742.40;;;;;;5096032;28;20024;-62
2021/06/22 09:54:31;;;;;;;36.35;7.22;;;1024.60;716.80;;;;;;5095849;28;20099;-62
2021/06/22 09:56:56;;;;;;;37.55;10.15;;;1024.80;716.80;;;;;;5095960;28;20431;-62
2021/06/22 09:59:23;;;;;;;42.00;10.60;;;1024.80;691.20;;;;;;5095831;28;20470;-62
2021/06/22 10:01:52;;;;;;;35.90;8.15;;;1049.60;716.80;;;;;;5095788;28;20036;-62
2021/06/22 10:04:27;;;;;;;38.42;7.80;;;1049.70;691.20;;;;;;5095659;28;20032;-63
2021/06/22 10:06:58;;;;;;;33.58;6.40;;;1049.60;716.80;;;;;;5095618;28;20081;-62
2021/06/22 10:09:27;;;;;;;50.55;7.25;;;1049.70;691.20;;;;;;5095385;28;20024;-62
2021/06/22 10:12:11;;;;;;;36.97;6.93;;;1049.70;691.20;;;;;;5095646;28;20089;-62
2021/06/22 10:14:47;;;;;;;31.13;7.90;;;1049.80;691.20;;;;;;5095413;28;20028;-62
2021/06/22 10:17:18;;;;;;;31.52;7.25;;;1049.90;691.20;;;;;;5095667;28;20023;-62
2021/06/22 10:19:46;;;;;;;49.53;8.93;;;1049.90;691.20;;;;;;5095477;28;20028;-63
2021/06/22 10:22:13;;;;;;;35.58;7.18;;;1049.90;691.20;;;;;;5095119;28;20398;-62
2021/06/22 10:24:43;;;;;;;30.15;6.65;;;1049.90;691.20;;;;;;5094962;28;20032;-63
2021/06/22 10:27:10;;;;;;;32.28;6.97;;;1050.00;691.20;;;;;;5095060;28;20031;-63
2021/06/22 10:29:36;;;;;;;45.15;8.57;;;1050.10;665.60;;;;;;5095195;28;20477;-62
2021/06/22 10:32:02;;;;;;;32.78;7.50;;;1050.20;665.60;;;;;;5094764;28;20020;-63
2021/06/22 10:34:30;;;;;;;38.30;7.65;;;1050.20;665.60;;;;;;5095059;28;20105;-63
2021/06/22 10:37:01;;;;;;;42.28;7.15;;;1050.20;665.60;;;;;;5095006;28;20020;-63
2021/06/22 10:39:48;;;;;;;34.85;7.25;;;1050.20;665.60;;;;;;5094941;28;20032;-63
2021/06/22 10:42:14;;;;;;;32.45;6.70;;;1050.30;665.60;;;;;;5095005;28;20381;-63
2021/06/22 10:44:49;;;;;;;30.23;6.07;;;1050.50;665.60;;;;;;5094864;28;20032;-63
2021/06/22 10:47:20;;;;;;;38.30;6.75;;;1050.50;665.60;;;;;;5094934;28;20466;-63
2021/06/22 10:50:23;;;;;;;46.92;6.80;;;1050.50;640.00;;;;;;5094292;28;20027;-62
2021/06/22 10:52:54;;;;;;;37.70;7.83;;;1050.50;640.00;;;;;;5095448;28;20370;-63
2021/06/22 10:55:35;;;;;;;32.53;6.70;;;1050.40;640.00;;;;;;5094712;28;20484;-63
2021/06/22 10:58:04;;;;;;;40.33;6.90;;;1050.50;640.00;;;;;;5094977;28;20051;-62
2021/06/22 11:00:38;;;;;;;28.70;6.45;;;1050.50;640.00;;;;;;5094677;28;20026;-62
2021/06/22 11:03:11;;;;;;;33.72;7.50;;;1050.40;640.00;;;;;;5094670;28;20270;-63
2021/06/22 11:05:39;;;;;;;33.85;7.25;;;1050.40;640.00;;;;;;5094371;28;20474;-63
2021/06/22 11:08:17;;;;;;;34.28;6.72;;;1050.40;640.00;;;;;;5094437;28;20031;-63
2021/06/22 11:11:07;;;;;;;34.17;7.05;;;1050.40;640.00;;;;;;5094634;28;20021;-63
2021/06/22 11:13:34;;;;;;;37.88;7.20;;;1050.40;640.00;;;;;;5094471;28;20016;-63
2021/06/22 11:16:02;;;;;;;37.00;7.25;;;1050.30;640.00;;;;;;5094199;28;20024;-63
2021/06/22 11:18:53;;;;;;;36.10;6.72;;;1050.20;640.00;;;;;;5094212;28;20025;-63
2021/06/22 11:21:27;;;;;;;45.47;7.45;;;1050.40;640.00;;;;;;5094198;28;20055;-63
2021/06/22 11:24:02;;;;;;;44.83;8.55;;;1050.50;640.00;;;;;;5094142;28;20056;-63
2021/06/22 11:26:54;;;;;;;34.03;7.25;;;1050.50;614.40;;;;;;5094212;28;20103;-63
2021/06/22 11:29:27;;;;;;;35.15;5.85;;;1050.40;614.40;;;;;;5094122;28;20028;-63
2021/06/22 11:31:58;;;;;;;36.67;7.47;;;1050.40;614.40;;;;;;5093882;28;20077;-63
2021/06/22 11:34:25;;;;;;;40.28;7.40;;;1050.40;614.40;;;;;;5094217;28;20522;-63
2021/06/22 11:36:53;;;;;;;39.65;7.90;;;1050.40;614.40;;;;;;5093947;28;20466;-63
2021/06/22 11:39:22;;;;;;;32.22;7.00;;;1050.40;614.40;;;;;;5093808;28;20025;-63
2021/06/22 11:44:48;;;;;;;39.88;7.97;;;1050.50;614.40;;;;;;5093599;28;20069;-63
2021/06/22 11:47:26;;;;;;;36.97;7.03;;;1075.20;588.80;;;;;;5093927;28;20055;-63
2021/06/22 11:50:00;;;;;;;47.72;8.88;;;1075.20;614.40;;;;;;5093969;28;20103;-63
2021/06/22 11:52:34;;;;;;;45.97;8.52;;;1075.20;614.40;;;;;;5093760;28;20016;-63
2021/06/22 11:55:03;;;;;;;39.80;8.25;;;1075.20;614.40;;;;;;5093260;28;20024;-62
2021/06/22 11:57:33;;;;;;;36.20;7.50;;;1075.20;614.40;;;;;;5093781;28;20085;-63
2021/06/22 12:00:05;;;;;;;41.92;8.55;;;1075.20;614.40;;;;;;5093578;28;20111;-63
2021/06/22 12:02:31;;;;;;;44.20;7.15;;;1075.20;588.80;;;;;;5092458;28;20040;-63
2021/06/22 12:04:57;;;;;;;28.23;6.55;;;1050.50;614.40;;;;;;5093646;28;20028;-63
2021/06/22 12:07:23;;;;;;;31.00;6.70;;;1050.50;614.40;;;;;;5093810;28;20024;-63
2021/06/22 12:09:49;;;;;;;43.17;7.38;;;1075.20;614.40;;;;;;5093652;28;20059;-62
2021/06/22 12:12:17;;;;;;;40.95;7.85;;;1050.50;588.80;;;;;;5093443;28;20024;-63
2021/06/22 12:14:48;;;;;;;50.90;8.25;;;1050.50;588.80;;;;;;5093651;28;20055;-63
2021/06/22 12:17:19;;;;;;;39.08;8.25;;;1050.50;614.40;;;;;;5093329;28;20081;-63
2021/06/22 12:19:46;;;;;;;36.97;7.20;;;1050.50;614.40;;;;;;5093540;28;20024;-63
2021/06/22 12:22:13;;;;;;;49.90;7.68;;;1050.50;614.40;;;;;;5093658;28;20052;-63